sensor_id;sensor_type;location;lat;lon;timestamp;P1;durP1;ratioP1;P2;durP2;ratioP2
24325;SDS011;12448;45.532;5.290;2024-03-07T00:01:23;9.30;;;3.47;;
24325;SDS011;12448;45.532;5.290;2024-03-07T00:03:51;10.68;;;3.58;;
24325;SDS011;12448;45.532;5.290;2024-03-07T00:06:17;7.07;;;3.05;;
24325;SDS011;12448;45.532;5.290;2024-03-07T00:08:42;8.13;;;3.05;;
24325;SDS011;12448;45.532;5.290;2024-03-07T00:11:08;8.48;;;3.30;;
24325;SDS011;12448;45.532;5.290;2024-03-07T00:13:34;9.48;;;3.85;;
24325;SDS011;12448;45.532;5.290;2024-03-07T00:16:00;7.82;;;3.65;;
24325;SDS011;12448;45.532;5.290;2024-03-07T00:18:27;16.63;;;4.57;;
24325;SDS011;12448;45.532;5.290;2024-03-07T00:20:52;10.23;;;4.00;;
24325;SDS011;12448;45.532;5.290;2024-03-07T00:23:19;7.72;;;4.28;;
24325;SDS011;12448;45.532;5.290;2024-03-07T00:25:45;15.82;;;4.93;;
24325;SDS011;12448;45.532;5.290;2024-03-07T00:28:14;16.27;;;5.70;;
24325;SDS011;12448;45.532;5.290;2024-03-07T00:30:42;9.05;;;3.72;;
24325;SDS011;12448;45.532;5.290;2024-03-07T00:33:10;10.32;;;4.10;;
24325;SDS011;12448;45.532;5.290;2024-03-07T00:35:37;12.93;;;4.95;;
24325;SDS011;12448;45.532;5.290;2024-03-07T00:38:02;9.57;;;3.90;;
24325;SDS011;12448;45.532;5.290;2024-03-07T00:40:29;9.38;;;4.03;;
24325;SDS011;12448;45.532;5.290;2024-03-07T00:42:54;12.85;;;4.18;;
24325;SDS011;12448;45.532;5.290;2024-03-07T00:45:20;10.27;;;4.32;;
24325;SDS011;12448;45.532;5.290;2024-03-07T00:47:46;8.85;;;5.00;;
24325;SDS011;12448;45.532;5.290;2024-03-07T00:50:13;13.23;;;6.47;;
24325;SDS011;12448;45.532;5.290;2024-03-07T00:52:39;14.18;;;7.25;;
24325;SDS011;12448;45.532;5.290;2024-03-07T00:55:05;9.55;;;4.68;;
24325;SDS011;12448;45.532;5.290;2024-03-07T00:57:34;10.00;;;5.10;;
24325;SDS011;12448;45.532;5.290;2024-03-07T01:00:00;10.77;;;4.68;;
24325;SDS011;12448;45.532;5.290;2024-03-07T01:02:26;10.25;;;4.70;;
24325;SDS011;12448;45.532;5.290;2024-03-07T01:04:52;9.98;;;4.57;;
24325;SDS011;12448;45.532;5.290;2024-03-07T01:07:18;10.10;;;5.30;;
24325;SDS011;12448;45.532;5.290;2024-03-07T01:09:44;8.43;;;4.13;;
24325;SDS011;12448;45.532;5.290;2024-03-07T01:12:10;10.30;;;4.63;;
24325;SDS011;12448;45.532;5.290;2024-03-07T01:14:37;13.10;;;5.55;;
24325;SDS011;12448;45.532;5.290;2024-03-07T01:17:03;13.75;;;5.60;;
24325;SDS011;12448;45.532;5.290;2024-03-07T01:19:28;11.90;;;4.82;;
24325;SDS011;12448;45.532;5.290;2024-03-07T01:21:54;8.48;;;4.85;;
24325;SDS011;12448;45.532;5.290;2024-03-07T01:24:20;11.07;;;3.90;;
24325;SDS011;12448;45.532;5.290;2024-03-07T01:26:46;9.88;;;4.25;;
24325;SDS011;12448;45.532;5.290;2024-03-07T01:29:11;10.55;;;4.57;;
24325;SDS011;12448;45.532;5.290;2024-03-07T01:31:38;11.23;;;4.85;;
24325;SDS011;12448;45.532;5.290;2024-03-07T01:34:04;14.30;;;5.22;;
24325;SDS011;12448;45.532;5.290;2024-03-07T01:36:29;14.98;;;5.05;;
24325;SDS011;12448;45.532;5.290;2024-03-07T01:38:55;9.80;;;4.90;;
24325;SDS011;12448;45.532;5.290;2024-03-07T01:41:21;10.20;;;5.40;;
24325;SDS011;12448;45.532;5.290;2024-03-07T01:43:47;10.32;;;5.10;;
24325;SDS011;12448;45.532;5.290;2024-03-07T01:46:12;12.23;;;5.55;;
24325;SDS011;12448;45.532;5.290;2024-03-07T01:48:39;9.85;;;5.85;;
24325;SDS011;12448;45.532;5.290;2024-03-07T01:51:05;11.38;;;5.07;;
24325;SDS011;12448;45.532;5.290;2024-03-07T01:53:31;10.40;;;5.43;;
24325;SDS011;12448;45.532;5.290;2024-03-07T01:56:01;10.90;;;5.03;;
24325;SDS011;12448;45.532;5.290;2024-03-07T01:58:27;11.38;;;5.47;;
24325;SDS011;12448;45.532;5.290;2024-03-07T02:00:55;15.93;;;5.47;;
24325;SDS011;12448;45.532;5.290;2024-03-07T02:03:21;14.18;;;7.40;;
24325;SDS011;12448;45.532;5.290;2024-03-07T02:05:47;13.25;;;6.30;;
24325;SDS011;12448;45.532;5.290;2024-03-07T02:08:12;13.50;;;5.78;;
24325;SDS011;12448;45.532;5.290;2024-03-07T02:10:39;14.32;;;5.55;;
24325;SDS011;12448;45.532;5.290;2024-03-07T02:13:06;12.07;;;5.75;;
24325;SDS011;12448;45.532;5.290;2024-03-07T02:15:31;16.15;;;6.13;;
24325;SDS011;12448;45.532;5.290;2024-03-07T02:17:57;10.05;;;5.40;;
24325;SDS011;12448;45.532;5.290;2024-03-07T02:20:23;11.88;;;5.82;;
24325;SDS011;12448;45.532;5.290;2024-03-07T02:22:49;14.75;;;5.82;;
24325;SDS011;12448;45.532;5.290;2024-03-07T02:25:15;12.00;;;5.25;;
24325;SDS011;12448;45.532;5.290;2024-03-07T02:27:41;12.07;;;5.43;;
24325;SDS011;12448;45.532;5.290;2024-03-07T02:30:07;12.20;;;5.65;;
24325;SDS011;12448;45.532;5.290;2024-03-07T02:32:34;10.73;;;5.38;;
24325;SDS011;12448;45.532;5.290;2024-03-07T02:35:02;11.73;;;5.20;;
24325;SDS011;12448;45.532;5.290;2024-03-07T02:37:28;13.60;;;5.20;;
24325;SDS011;12448;45.532;5.290;2024-03-07T02:39:54;16.63;;;6.00;;
24325;SDS011;12448;45.532;5.290;2024-03-07T02:42:19;11.98;;;5.57;;
24325;SDS011;12448;45.532;5.290;2024-03-07T02:44:46;20.52;;;7.60;;
24325;SDS011;12448;45.532;5.290;2024-03-07T02:47:11;20.27;;;7.43;;
24325;SDS011;12448;45.532;5.290;2024-03-07T02:49:37;12.07;;;6.85;;
24325;SDS011;12448;45.532;5.290;2024-03-07T02:52:03;15.52;;;8.77;;
24325;SDS011;12448;45.532;5.290;2024-03-07T02:54:32;19.50;;;9.45;;
24325;SDS011;12448;45.532;5.290;2024-03-07T02:56:58;14.05;;;7.30;;
24325;SDS011;12448;45.532;5.290;2024-03-07T02:59:23;20.08;;;10.40;;
24325;SDS011;12448;45.532;5.290;2024-03-07T03:01:49;18.98;;;8.85;;
24325;SDS011;12448;45.532;5.290;2024-03-07T03:04:15;17.30;;;8.20;;
24325;SDS011;12448;45.532;5.290;2024-03-07T03:06:41;13.25;;;5.95;;
24325;SDS011;12448;45.532;5.290;2024-03-07T03:09:07;16.13;;;6.53;;
24325;SDS011;12448;45.532;5.290;2024-03-07T03:11:35;13.48;;;6.32;;
24325;SDS011;12448;45.532;5.290;2024-03-07T03:14:01;16.52;;;6.65;;
24325;SDS011;12448;45.532;5.290;2024-03-07T03:16:27;11.07;;;5.78;;
24325;SDS011;12448;45.532;5.290;2024-03-07T03:18:52;13.90;;;5.97;;
24325;SDS011;12448;45.532;5.290;2024-03-07T03:21:19;13.88;;;7.25;;
24325;SDS011;12448;45.532;5.290;2024-03-07T03:23:44;13.48;;;6.50;;
24325;SDS011;12448;45.532;5.290;2024-03-07T03:26:11;17.02;;;7.40;;
24325;SDS011;12448;45.532;5.290;2024-03-07T03:28:37;13.60;;;6.75;;
24325;SDS011;12448;45.532;5.290;2024-03-07T03:31:07;11.18;;;7.10;;
24325;SDS011;12448;45.532;5.290;2024-03-07T03:33:33;13.73;;;7.25;;
24325;SDS011;12448;45.532;5.290;2024-03-07T03:36:00;20.13;;;7.43;;
24325;SDS011;12448;45.532;5.290;2024-03-07T03:38:26;14.90;;;7.93;;
24325;SDS011;12448;45.532;5.290;2024-03-07T03:40:51;14.00;;;7.13;;
24325;SDS011;12448;45.532;5.290;2024-03-07T03:43:17;12.32;;;6.85;;
24325;SDS011;12448;45.532;5.290;2024-03-07T03:45:43;18.08;;;8.45;;
24325;SDS011;12448;45.532;5.290;2024-03-07T03:48:09;15.57;;;8.52;;
24325;SDS011;12448;45.532;5.290;2024-03-07T03:50:34;16.45;;;8.50;;
24325;SDS011;12448;45.532;5.290;2024-03-07T03:53:00;17.05;;;7.97;;
24325;SDS011;12448;45.532;5.290;2024-03-07T03:55:27;14.10;;;8.15;;
24325;SDS011;12448;45.532;5.290;2024-03-07T03:57:52;19.23;;;8.85;;
24325;SDS011;12448;45.532;5.290;2024-03-07T04:00:18;17.33;;;8.55;;
24325;SDS011;12448;45.532;5.290;2024-03-07T04:02:47;26.63;;;14.30;;
24325;SDS011;12448;45.532;5.290;2024-03-07T04:05:13;17.65;;;8.50;;
24325;SDS011;12448;45.532;5.290;2024-03-07T04:07:41;20.20;;;9.00;;
24325;SDS011;12448;45.532;5.290;2024-03-07T04:10:07;16.90;;;8.73;;
24325;SDS011;12448;45.532;5.290;2024-03-07T04:12:36;29.15;;;14.20;;
24325;SDS011;12448;45.532;5.290;2024-03-07T04:15:03;19.70;;;8.23;;
24325;SDS011;12448;45.532;5.290;2024-03-07T04:17:33;15.25;;;7.50;;
24325;SDS011;12448;45.532;5.290;2024-03-07T04:20:00;14.27;;;8.00;;
24325;SDS011;12448;45.532;5.290;2024-03-07T04:22:27;17.13;;;7.88;;
24325;SDS011;12448;45.532;5.290;2024-03-07T04:24:52;16.23;;;7.15;;
24325;SDS011;12448;45.532;5.290;2024-03-07T04:27:21;15.00;;;6.80;;
24325;SDS011;12448;45.532;5.290;2024-03-07T04:29:47;16.58;;;7.63;;
24325;SDS011;12448;45.532;5.290;2024-03-07T04:32:14;15.05;;;7.45;;
24325;SDS011;12448;45.532;5.290;2024-03-07T04:34:39;15.73;;;7.50;;
24325;SDS011;12448;45.532;5.290;2024-03-07T04:37:05;19.40;;;7.95;;
24325;SDS011;12448;45.532;5.290;2024-03-07T04:39:31;15.45;;;7.82;;
24325;SDS011;12448;45.532;5.290;2024-03-07T04:42:00;15.10;;;7.72;;
24325;SDS011;12448;45.532;5.290;2024-03-07T04:44:31;15.82;;;8.50;;
24325;SDS011;12448;45.532;5.290;2024-03-07T04:46:58;16.30;;;7.95;;
24325;SDS011;12448;45.532;5.290;2024-03-07T04:49:25;13.63;;;7.63;;
24325;SDS011;12448;45.532;5.290;2024-03-07T04:51:55;16.67;;;7.97;;
24325;SDS011;12448;45.532;5.290;2024-03-07T04:54:23;14.05;;;7.75;;
24325;SDS011;12448;45.532;5.290;2024-03-07T04:56:49;13.85;;;8.05;;
24325;SDS011;12448;45.532;5.290;2024-03-07T04:59:16;19.40;;;8.00;;
24325;SDS011;12448;45.532;5.290;2024-03-07T05:01:43;44.40;;;18.10;;
24325;SDS011;12448;45.532;5.290;2024-03-07T05:04:11;129.65;;;46.75;;
24325;SDS011;12448;45.532;5.290;2024-03-07T05:06:37;96.63;;;35.58;;
24325;SDS011;12448;45.532;5.290;2024-03-07T05:09:03;42.80;;;15.02;;
24325;SDS011;12448;45.532;5.290;2024-03-07T05:11:30;34.30;;;12.93;;
24325;SDS011;12448;45.532;5.290;2024-03-07T05:13:56;30.63;;;13.95;;
24325;SDS011;12448;45.532;5.290;2024-03-07T05:16:28;36.80;;;17.15;;
24325;SDS011;12448;45.532;5.290;2024-03-07T05:18:56;37.08;;;16.13;;
24325;SDS011;12448;45.532;5.290;2024-03-07T05:21:25;29.05;;;12.98;;
24325;SDS011;12448;45.532;5.290;2024-03-07T05:23:59;28.48;;;12.07;;
24325;SDS011;12448;45.532;5.290;2024-03-07T05:26:26;31.52;;;13.30;;
24325;SDS011;12448;45.532;5.290;2024-03-07T05:28:52;33.42;;;13.73;;
24325;SDS011;12448;45.532;5.290;2024-03-07T05:31:19;20.67;;;10.63;;
24325;SDS011;12448;45.532;5.290;2024-03-07T05:33:46;21.80;;;10.57;;
24325;SDS011;12448;45.532;5.290;2024-03-07T05:36:12;26.77;;;10.65;;
24325;SDS011;12448;45.532;5.290;2024-03-07T05:38:43;18.85;;;8.90;;
24325;SDS011;12448;45.532;5.290;2024-03-07T05:41:10;17.23;;;8.52;;
24325;SDS011;12448;45.532;5.290;2024-03-07T05:43:37;25.83;;;10.18;;
24325;SDS011;12448;45.532;5.290;2024-03-07T05:46:06;32.55;;;13.23;;
24325;SDS011;12448;45.532;5.290;2024-03-07T05:48:34;37.35;;;15.88;;
24325;SDS011;12448;45.532;5.290;2024-03-07T05:50:59;34.25;;;15.35;;
24325;SDS011;12448;45.532;5.290;2024-03-07T05:53:25;23.10;;;12.25;;
24325;SDS011;12448;45.532;5.290;2024-03-07T05:55:51;22.83;;;11.50;;
24325;SDS011;12448;45.532;5.290;2024-03-07T05:58:17;25.92;;;11.70;;
24325;SDS011;12448;45.532;5.290;2024-03-07T06:00:44;23.75;;;10.85;;
24325;SDS011;12448;45.532;5.290;2024-03-07T06:03:17;21.03;;;11.80;;
24325;SDS011;12448;45.532;5.290;2024-03-07T06:05:46;30.85;;;15.52;;
24325;SDS011;12448;45.532;5.290;2024-03-07T06:08:14;32.35;;;17.83;;
24325;SDS011;12448;45.532;5.290;2024-03-07T06:10:42;43.65;;;24.00;;
24325;SDS011;12448;45.532;5.290;2024-03-07T06:13:08;68.13;;;39.13;;
24325;SDS011;12448;45.532;5.290;2024-03-07T06:15:35;35.88;;;19.08;;
24325;SDS011;12448;45.532;5.290;2024-03-07T06:18:03;22.90;;;11.88;;
24325;SDS011;12448;45.532;5.290;2024-03-07T06:20:29;17.92;;;10.02;;
24325;SDS011;12448;45.532;5.290;2024-03-07T06:22:54;15.90;;;9.25;;
24325;SDS011;12448;45.532;5.290;2024-03-07T06:25:22;20.88;;;9.73;;
24325;SDS011;12448;45.532;5.290;2024-03-07T06:28:11;17.23;;;9.45;;
24325;SDS011;12448;45.532;5.290;2024-03-07T06:30:40;18.48;;;9.70;;
24325;SDS011;12448;45.532;5.290;2024-03-07T06:33:08;16.77;;;8.20;;
24325;SDS011;12448;45.532;5.290;2024-03-07T06:35:35;12.93;;;8.43;;
24325;SDS011;12448;45.532;5.290;2024-03-07T06:38:02;14.63;;;9.15;;
24325;SDS011;12448;45.532;5.290;2024-03-07T06:40:28;15.50;;;8.07;;
24325;SDS011;12448;45.532;5.290;2024-03-07T06:42:54;428.92;;;24.50;;
24325;SDS011;12448;45.532;5.290;2024-03-07T06:45:20;51.92;;;19.08;;
24325;SDS011;12448;45.532;5.290;2024-03-07T06:47:46;51.63;;;23.95;;
24325;SDS011;12448;45.532;5.290;2024-03-07T06:50:12;26.05;;;13.95;;
24325;SDS011;12448;45.532;5.290;2024-03-07T06:52:40;26.25;;;12.00;;
24325;SDS011;12448;45.532;5.290;2024-03-07T06:55:06;18.83;;;10.88;;
24325;SDS011;12448;45.532;5.290;2024-03-07T06:57:34;19.42;;;11.40;;
24325;SDS011;12448;45.532;5.290;2024-03-07T07:00:00;32.40;;;16.45;;
24325;SDS011;12448;45.532;5.290;2024-03-07T07:02:26;49.80;;;24.55;;
24325;SDS011;12448;45.532;5.290;2024-03-07T07:04:53;28.73;;;16.40;;
24325;SDS011;12448;45.532;5.290;2024-03-07T07:07:18;42.03;;;23.50;;
24325;SDS011;12448;45.532;5.290;2024-03-07T07:09:45;40.35;;;22.25;;
24325;SDS011;12448;45.532;5.290;2024-03-07T07:12:11;37.85;;;21.75;;
24325;SDS011;12448;45.532;5.290;2024-03-07T07:14:36;34.03;;;18.38;;
24325;SDS011;12448;45.532;5.290;2024-03-07T07:17:03;29.88;;;18.00;;
24325;SDS011;12448;45.532;5.290;2024-03-07T07:19:28;25.30;;;15.55;;
24325;SDS011;12448;45.532;5.290;2024-03-07T07:21:54;28.90;;;16.65;;
24325;SDS011;12448;45.532;5.290;2024-03-07T07:24:20;32.28;;;16.45;;
24325;SDS011;12448;45.532;5.290;2024-03-07T07:26:49;28.02;;;15.88;;
24325;SDS011;12448;45.532;5.290;2024-03-07T07:29:15;44.75;;;20.45;;
24325;SDS011;12448;45.532;5.290;2024-03-07T07:31:41;24.13;;;11.65;;
24325;SDS011;12448;45.532;5.290;2024-03-07T07:34:07;16.33;;;9.57;;
24325;SDS011;12448;45.532;5.290;2024-03-07T07:36:32;19.85;;;9.98;;
24325;SDS011;12448;45.532;5.290;2024-03-07T07:38:58;16.27;;;9.85;;
24325;SDS011;12448;45.532;5.290;2024-03-07T07:41:24;15.10;;;9.32;;
24325;SDS011;12448;45.532;5.290;2024-03-07T07:43:50;21.38;;;10.50;;
24325;SDS011;12448;45.532;5.290;2024-03-07T07:46:16;19.20;;;10.60;;
24325;SDS011;12448;45.532;5.290;2024-03-07T07:48:42;19.65;;;8.50;;
24325;SDS011;12448;45.532;5.290;2024-03-07T07:51:08;11.70;;;7.95;;
24325;SDS011;12448;45.532;5.290;2024-03-07T07:53:34;14.23;;;8.02;;
24325;SDS011;12448;45.532;5.290;2024-03-07T07:56:00;14.60;;;8.95;;
24325;SDS011;12448;45.532;5.290;2024-03-07T07:58:25;17.20;;;8.98;;
24325;SDS011;12448;45.532;5.290;2024-03-07T08:00:51;16.52;;;8.80;;
24325;SDS011;12448;45.532;5.290;2024-03-07T08:19:14;15.64;;;10.54;;
24325;SDS011;12448;45.532;5.290;2024-03-07T08:38:30;67.63;;;30.67;;
24325;SDS011;12448;45.532;5.290;2024-03-07T09:30:35;29.23;;;18.48;;
24325;SDS011;12448;45.532;5.290;2024-03-07T09:33:25;6.68;;;4.95;;
24325;SDS011;12448;45.532;5.290;2024-03-07T09:35:59;10.77;;;6.38;;
24325;SDS011;12448;45.532;5.290;2024-03-07T09:44:55;13.05;;;7.10;;
24325;SDS011;12448;45.532;5.290;2024-03-07T09:47:29;22.45;;;17.92;;
24325;SDS011;12448;45.532;5.290;2024-03-07T09:49:55;8.45;;;4.88;;
24325;SDS011;12448;45.532;5.290;2024-03-07T09:52:30;4.70;;;3.40;;
24325;SDS011;12448;45.532;5.290;2024-03-07T09:54:56;16.55;;;13.40;;
24325;SDS011;12448;45.532;5.290;2024-03-07T10:00:27;10.55;;;6.68;;
24325;SDS011;12448;45.532;5.290;2024-03-07T10:02:56;8.50;;;7.03;;
24325;SDS011;12448;45.532;5.290;2024-03-07T10:05:29;5.57;;;4.40;;
24325;SDS011;12448;45.532;5.290;2024-03-07T10:08:16;4.68;;;3.45;;
24325;SDS011;12448;45.532;5.290;2024-03-07T10:10:47;4.50;;;3.00;;
24325;SDS011;12448;45.532;5.290;2024-03-07T10:13:50;8.27;;;3.75;;
24325;SDS011;12448;45.532;5.290;2024-03-07T10:16:22;8.77;;;5.97;;
24325;SDS011;12448;45.532;5.290;2024-03-07T10:19:17;5.82;;;3.38;;
24325;SDS011;12448;45.532;5.290;2024-03-07T10:21:40;16.05;;;9.80;;
24325;SDS011;12448;45.532;5.290;2024-03-07T10:24:14;24.50;;;18.15;;
24325;SDS011;12448;45.532;5.290;2024-03-07T10:26:40;27.35;;;17.70;;
24325;SDS011;12448;45.532;5.290;2024-03-07T10:29:06;10.70;;;4.68;;
24325;SDS011;12448;45.532;5.290;2024-03-07T10:31:39;13.82;;;8.98;;
24325;SDS011;12448;45.532;5.290;2024-03-07T10:34:09;4.07;;;2.78;;
24325;SDS011;12448;45.532;5.290;2024-03-07T10:36:38;6.18;;;3.70;;
24325;SDS011;12448;45.532;5.290;2024-03-07T10:39:09;7.20;;;3.85;;
24325;SDS011;12448;45.532;5.290;2024-03-07T10:41:47;37.28;;;18.92;;
24325;SDS011;12448;45.532;5.290;2024-03-07T10:44:24;15.35;;;8.15;;
24325;SDS011;12448;45.532;5.290;2024-03-07T10:46:59;20.73;;;11.63;;
24325;SDS011;12448;45.532;5.290;2024-03-07T10:49:31;4.30;;;3.05;;
24325;SDS011;12448;45.532;5.290;2024-03-07T10:52:02;5.18;;;3.40;;
24325;SDS011;12448;45.532;5.290;2024-03-07T10:57:35;6.43;;;3.25;;
24325;SDS011;12448;45.532;5.290;2024-03-07T11:00:09;5.47;;;3.03;;
24325;SDS011;12448;45.532;5.290;2024-03-07T11:02:57;5.60;;;3.20;;
24325;SDS011;12448;45.532;5.290;2024-03-07T11:05:32;7.68;;;3.92;;
24325;SDS011;12448;45.532;5.290;2024-03-07T11:07:58;6.00;;;3.55;;
24325;SDS011;12448;45.532;5.290;2024-03-07T11:10:30;8.80;;;4.60;;
24325;SDS011;12448;45.532;5.290;2024-03-07T11:12:56;4.50;;;3.20;;
24325;SDS011;12448;45.532;5.290;2024-03-07T11:15:23;11.10;;;5.82;;
24325;SDS011;12448;45.532;5.290;2024-03-07T11:17:52;13.18;;;6.53;;
24325;SDS011;12448;45.532;5.290;2024-03-07T11:20:20;8.27;;;2.97;;
24325;SDS011;12448;45.532;5.290;2024-03-07T11:22:47;15.38;;;7.47;;
24325;SDS011;12448;45.532;5.290;2024-03-07T11:25:13;6.60;;;3.20;;
24325;SDS011;12448;45.532;5.290;2024-03-07T11:27:38;18.17;;;6.35;;
24325;SDS011;12448;45.532;5.290;2024-03-07T11:30:05;5.28;;;3.35;;
24325;SDS011;12448;45.532;5.290;2024-03-07T11:32:39;4.78;;;3.40;;
24325;SDS011;12448;45.532;5.290;2024-03-07T11:35:11;6.88;;;3.53;;
24325;SDS011;12448;45.532;5.290;2024-03-07T11:37:41;10.93;;;6.25;;
24325;SDS011;12448;45.532;5.290;2024-03-07T11:43:00;9.32;;;4.78;;
24325;SDS011;12448;45.532;5.290;2024-03-07T11:45:29;7.40;;;4.10;;
24325;SDS011;12448;45.532;5.290;2024-03-07T11:47:59;8.05;;;4.85;;
24325;SDS011;12448;45.532;5.290;2024-03-07T11:50:26;10.20;;;4.82;;
24325;SDS011;12448;45.532;5.290;2024-03-07T11:52:55;5.90;;;3.85;;
24325;SDS011;12448;45.532;5.290;2024-03-07T11:55:21;4.63;;;3.00;;
24325;SDS011;12448;45.532;5.290;2024-03-07T11:57:48;4.78;;;3.40;;
24325;SDS011;12448;45.532;5.290;2024-03-07T12:00:16;5.13;;;3.17;;
24325;SDS011;12448;45.532;5.290;2024-03-07T12:02:43;3.88;;;3.00;;
24325;SDS011;12448;45.532;5.290;2024-03-07T12:05:09;7.18;;;3.95;;
24325;SDS011;12448;45.532;5.290;2024-03-07T12:07:35;6.75;;;3.30;;
24325;SDS011;12448;45.532;5.290;2024-03-07T12:10:03;6.13;;;3.20;;
24325;SDS011;12448;45.532;5.290;2024-03-07T12:12:29;5.20;;;3.10;;
24325;SDS011;12448;45.532;5.290;2024-03-07T12:14:56;6.30;;;3.38;;
24325;SDS011;12448;45.532;5.290;2024-03-07T12:17:22;5.90;;;3.47;;
24325;SDS011;12448;45.532;5.290;2024-03-07T12:19:48;4.57;;;3.58;;
24325;SDS011;12448;45.532;5.290;2024-03-07T12:22:20;6.10;;;3.60;;
24325;SDS011;12448;45.532;5.290;2024-03-07T12:24:48;7.70;;;4.25;;
24325;SDS011;12448;45.532;5.290;2024-03-07T12:27:33;7.00;;;4.10;;
24325;SDS011;12448;45.532;5.290;2024-03-07T12:29:59;9.50;;;4.07;;
24325;SDS011;12448;45.532;5.290;2024-03-07T12:32:32;8.18;;;4.28;;
24325;SDS011;12448;45.532;5.290;2024-03-07T12:34:58;10.00;;;3.90;;
24325;SDS011;12448;45.532;5.290;2024-03-07T12:37:24;6.25;;;3.97;;
24325;SDS011;12448;45.532;5.290;2024-03-07T12:39:52;5.82;;;3.45;;
24325;SDS011;12448;45.532;5.290;2024-03-07T12:42:26;6.00;;;4.05;;
24325;SDS011;12448;45.532;5.290;2024-03-07T12:44:56;8.35;;;3.92;;
24325;SDS011;12448;45.532;5.290;2024-03-07T12:47:24;8.95;;;3.92;;
24325;SDS011;12448;45.532;5.290;2024-03-07T12:49:51;4.95;;;3.50;;
24325;SDS011;12448;45.532;5.290;2024-03-07T12:52:16;8.25;;;3.35;;
24325;SDS011;12448;45.532;5.290;2024-03-07T12:54:42;6.82;;;4.28;;
24325;SDS011;12448;45.532;5.290;2024-03-07T12:57:10;4.38;;;3.10;;
24325;SDS011;12448;45.532;5.290;2024-03-07T12:59:39;3.97;;;2.58;;
24325;SDS011;12448;45.532;5.290;2024-03-07T13:02:06;5.10;;;3.17;;
24325;SDS011;12448;45.532;5.290;2024-03-07T13:04:35;5.15;;;2.92;;
24325;SDS011;12448;45.532;5.290;2024-03-07T13:07:05;5.30;;;4.15;;
24325;SDS011;12448;45.532;5.290;2024-03-07T13:09:32;6.10;;;4.07;;
24325;SDS011;12448;45.532;5.290;2024-03-07T13:12:02;11.82;;;9.80;;
24325;SDS011;12448;45.532;5.290;2024-03-07T13:14:32;2.60;;;2.35;;
24325;SDS011;12448;45.532;5.290;2024-03-07T13:17:01;9.85;;;7.47;;
24325;SDS011;12448;45.532;5.290;2024-03-07T13:19:28;9.07;;;5.00;;
24325;SDS011;12448;45.532;5.290;2024-03-07T13:21:54;7.53;;;3.55;;
24325;SDS011;12448;45.532;5.290;2024-03-07T13:24:21;30.95;;;2.92;;
24325;SDS011;12448;45.532;5.290;2024-03-07T13:26:51;30.60;;;6.00;;
24325;SDS011;12448;45.532;5.290;2024-03-07T13:29:18;17.60;;;10.55;;
24325;SDS011;12448;45.532;5.290;2024-03-07T13:31:49;87.85;;;8.55;;
24325;SDS011;12448;45.532;5.290;2024-03-07T13:34:16;38.22;;;4.72;;
24325;SDS011;12448;45.532;5.290;2024-03-07T13:36:42;6.20;;;1.65;;
24325;SDS011;12448;45.532;5.290;2024-03-07T13:39:09;3.85;;;1.45;;
24325;SDS011;12448;45.532;5.290;2024-03-07T13:41:39;2.13;;;1.40;;
24325;SDS011;12448;45.532;5.290;2024-03-07T13:44:05;2.58;;;1.50;;
24325;SDS011;12448;45.532;5.290;2024-03-07T13:46:31;2.17;;;1.20;;
24325;SDS011;12448;45.532;5.290;2024-03-07T13:49:01;3.88;;;1.38;;
24325;SDS011;12448;45.532;5.290;2024-03-07T13:51:42;1.63;;;1.30;;
24325;SDS011;12448;45.532;5.290;2024-03-07T13:54:34;2.95;;;1.08;;
24325;SDS011;12448;45.532;5.290;2024-03-07T14:02:53;2.90;;;0.93;;
24325;SDS011;12448;45.532;5.290;2024-03-07T14:05:44;333.08;;;21.92;;
24325;SDS011;12448;45.532;5.290;2024-03-07T14:14:01;164.02;;;12.40;;
24325;SDS011;12448;45.532;5.290;2024-03-07T14:20:33;15.00;;;5.85;;
24325;SDS011;12448;45.532;5.290;2024-03-07T14:31:05;138.70;;;10.57;;
24325;SDS011;12448;45.532;5.290;2024-03-07T14:33:47;7.13;;;1.58;;
24325;SDS011;12448;45.532;5.290;2024-03-07T14:36:14;2.95;;;1.30;;
24325;SDS011;12448;45.532;5.290;2024-03-07T14:38:47;2.17;;;1.45;;
24325;SDS011;12448;45.532;5.290;2024-03-07T14:41:17;1.55;;;1.30;;
24325;SDS011;12448;45.532;5.290;2024-03-07T14:43:44;1.98;;;1.30;;
24325;SDS011;12448;45.532;5.290;2024-03-07T14:46:10;1.70;;;1.35;;
24325;SDS011;12448;45.532;5.290;2024-03-07T14:48:37;6.65;;;4.13;;
24325;SDS011;12448;45.532;5.290;2024-03-07T14:51:05;25.90;;;13.60;;
24325;SDS011;12448;45.532;5.290;2024-03-07T14:53:32;5.03;;;2.00;;
24325;SDS011;12448;45.532;5.290;2024-03-07T14:55:58;11.88;;;6.47;;
24325;SDS011;12448;45.532;5.290;2024-03-07T14:58:24;3.92;;;2.20;;
24325;SDS011;12448;45.532;5.290;2024-03-07T15:00:50;3.58;;;1.92;;
24325;SDS011;12448;45.532;5.290;2024-03-07T15:03:18;3.95;;;2.20;;
24325;SDS011;12448;45.532;5.290;2024-03-07T15:05:44;5.80;;;2.47;;
24325;SDS011;12448;45.532;5.290;2024-03-07T15:08:10;4.70;;;2.22;;
24325;SDS011;12448;45.532;5.290;2024-03-07T15:10:36;5.13;;;2.60;;
24325;SDS011;12448;45.532;5.290;2024-03-07T15:13:06;3.47;;;2.10;;
24325;SDS011;12448;45.532;5.290;2024-03-07T15:15:33;3.67;;;2.13;;
24325;SDS011;12448;45.532;5.290;2024-03-07T15:17:59;7.00;;;4.63;;
24325;SDS011;12448;45.532;5.290;2024-03-07T15:20:25;4.63;;;2.30;;
24325;SDS011;12448;45.532;5.290;2024-03-07T15:22:54;6.43;;;3.83;;
24325;SDS011;12448;45.532;5.290;2024-03-07T15:25:22;3.58;;;2.45;;
24325;SDS011;12448;45.532;5.290;2024-03-07T15:27:49;4.55;;;3.08;;
24325;SDS011;12448;45.532;5.290;2024-03-07T15:30:18;5.80;;;2.22;;
24325;SDS011;12448;45.532;5.290;2024-03-07T15:32:45;7.68;;;4.55;;
24325;SDS011;12448;45.532;5.290;2024-03-07T15:35:11;4.18;;;2.17;;
24325;SDS011;12448;45.532;5.290;2024-03-07T15:37:41;5.20;;;2.08;;
24325;SDS011;12448;45.532;5.290;2024-03-07T15:40:10;5.20;;;2.10;;
24325;SDS011;12448;45.532;5.290;2024-03-07T15:42:42;7.55;;;2.05;;
24325;SDS011;12448;45.532;5.290;2024-03-07T15:45:13;2.53;;;1.63;;
24325;SDS011;12448;45.532;5.290;2024-03-07T15:47:43;5.35;;;2.30;;
24325;SDS011;12448;45.532;5.290;2024-03-07T15:50:13;8.27;;;2.15;;
24325;SDS011;12448;45.532;5.290;2024-03-07T15:52:42;5.47;;;2.10;;
24325;SDS011;12448;45.532;5.290;2024-03-07T15:55:08;4.35;;;2.38;;
24325;SDS011;12448;45.532;5.290;2024-03-07T16:00:08;4.50;;;2.40;;
24325;SDS011;12448;45.532;5.290;2024-03-07T16:02:47;4.95;;;3.10;;
24325;SDS011;12448;45.532;5.290;2024-03-07T16:05:34;5.93;;;2.65;;
24325;SDS011;12448;45.532;5.290;2024-03-07T16:08:00;3.17;;;2.50;;
24325;SDS011;12448;45.532;5.290;2024-03-07T16:10:31;2.85;;;2.00;;
24325;SDS011;12448;45.532;5.290;2024-03-07T16:12:59;3.40;;;2.20;;
24325;SDS011;12448;45.532;5.290;2024-03-07T16:15:29;3.67;;;2.40;;
24325;SDS011;12448;45.532;5.290;2024-03-07T16:17:57;5.68;;;2.13;;
24325;SDS011;12448;45.532;5.290;2024-03-07T16:20:23;5.18;;;2.13;;
24325;SDS011;12448;45.532;5.290;2024-03-07T16:22:52;5.20;;;2.13;;
24325;SDS011;12448;45.532;5.290;2024-03-07T16:25:19;4.40;;;2.33;;
24325;SDS011;12448;45.532;5.290;2024-03-07T16:27:48;2.40;;;1.90;;
24325;SDS011;12448;45.532;5.290;2024-03-07T16:30:15;2.40;;;1.83;;
24325;SDS011;12448;45.532;5.290;2024-03-07T16:32:44;4.15;;;2.00;;
24325;SDS011;12448;45.532;5.290;2024-03-07T16:35:13;7.53;;;3.22;;
24325;SDS011;12448;45.532;5.290;2024-03-07T16:37:41;5.22;;;2.15;;
24325;SDS011;12448;45.532;5.290;2024-03-07T16:40:13;3.05;;;2.10;;
24325;SDS011;12448;45.532;5.290;2024-03-07T16:42:42;4.88;;;1.73;;
24325;SDS011;12448;45.532;5.290;2024-03-07T16:45:09;33.78;;;17.02;;